Time;durP1;ratioP1;P1;durP2;ratioP2;P2;SDS_P1;SDS_P2;PMS_P1;PMS_P2;Temp;Humidity;BMP_temperature;BMP_pressure;BME280_temperature;BME280_humidity;BME280_pressure;Samples;Min_cycle;Max_cycle;Signal;HPM_P1;HPM_P2
2021/07/25 00:02:40;;;;;;;24.73;21.35;;;;;;;;;;5045085;28;20049;-66
2021/07/25 00:05:26;;;;;;;21.05;18.27;;;;;;;;;;5055360;28;20037;-65
2021/07/25 00:08:14;;;;;;;20.38;18.23;;;;;;;;;;5055427;28;20048;-64
2021/07/25 00:11:00;;;;;;;19.48;17.48;;;;;;;;;;5054982;28;20111;-65
2021/07/25 00:13:51;;;;;;;21.02;18.10;;;;;;;;;;5050341;28;20392;-65
2021/07/25 00:16:36;;;;;;;25.90;21.57;;;;;;;;;;5053837;28;20116;-65
2021/07/25 00:19:22;;;;;;;23.20;19.95;;;;;;;;;;5015221;28;20052;-65
2021/07/25 00:22:07;;;;;;;37.13;26.40;;;;;;;;;;5041634;28;20049;-65
2021/07/25 00:25:07;;;;;;;29.17;25.20;;;;;;;;;;5055108;28;20045;-65
2021/07/25 00:27:54;;;;;;;29.27;25.95;;;;;;;;;;5015110;28;20042;-65
2021/07/25 00:30:39;;;;;;;26.10;23.33;;;;;;;;;;5015875;28;20448;-66
2021/07/25 00:33:25;;;;;;;32.63;26.13;;;;;;;;;;5055067;28;20048;-67
2021/07/25 00:36:10;;;;;;;29.70;26.27;;;;;;;;;;5054677;28;20092;-67
2021/07/25 00:38:57;;;;;;;27.52;24.55;;;;;;;;;;5052738;28;20045;-67
2021/07/25 00:41:42;;;;;;;26.70;23.33;;;;;;;;;;5051349;28;20399;-66
2021/07/25 00:44:27;;;;;;;36.40;25.88;;;;;;;;;;5048253;28;20049;-67
2021/07/25 00:47:13;;;;;;;32.47;26.77;;;;;;;;;;5054698;28;20045;-66
2021/07/25 00:50:04;;;;;;;28.13;23.45;;;;;;;;;;5050598;28;20082;-67
2021/07/25 00:52:49;;;;;;;35.55;26.48;;;;;;;;;;5052408;28;20079;-66
2021/07/25 00:55:34;;;;;;;28.80;24.92;;;;;;;;;;5054010;28;20052;-66
2021/07/25 00:58:19;;;;;;;26.48;21.52;;;;;;;;;;5053358;28;20045;-66
2021/07/25 01:01:05;;;;;;;24.40;21.25;;;;;;;;;;5049111;28;20526;-66
2021/07/25 01:04:05;;;;;;;27.10;21.65;;;;;;;;;;5051874;28;20060;-66
2021/07/25 01:07:02;;;;;;;29.23;22.00;;;;;;;;;;5050675;28;20048;-66
2021/07/25 01:09:49;;;;;;;28.90;22.50;;;;;;;;;;5051826;28;20099;-66
2021/07/25 01:12:38;;;;;;;27.23;22.85;;;;;;;;;;5054257;28;20055;-66
2021/07/25 01:15:24;;;;;;;32.58;23.35;;;;;;;;;;5051785;28;20059;-66
2021/07/25 01:18:09;;;;;;;26.02;21.38;;;;;;;;;;5053958;28;20057;-65
2021/07/25 01:20:55;;;;;;;27.15;21.08;;;;;;;;;;5049893;28;20095;-64
2021/07/25 01:23:40;;;;;;;22.73;19.08;;;;;;;;;;5051597;28;20045;-64
2021/07/25 01:26:29;;;;;;;23.77;19.95;;;;;;;;;;5014167;28;20053;-64
2021/07/25 01:29:14;;;;;;;24.85;19.92;;;;;;;;;;5016706;28;20054;-65
2021/07/25 01:32:00;;;;;;;23.05;20.10;;;;;;;;;;5050117;28;20053;-65
2021/07/25 01:34:46;;;;;;;30.83;24.23;;;;;;;;;;5053583;28;20044;-65
2021/07/25 01:37:31;;;;;;;33.92;23.80;;;;;;;;;;5052795;28;20124;-65
2021/07/25 01:40:20;;;;;;;35.40;24.90;;;;;;;;;;5033649;28;20518;-65
2021/07/25 01:43:09;;;;;;;34.38;25.88;;;;;;;;;;5046110;28;20132;-65
2021/07/25 01:45:54;;;;;;;29.27;23.27;;;;;;;;;;5051012;28;20415;-65
2021/07/25 01:48:39;;;;;;;34.08;24.58;;;;;;;;;;5052461;28;20094;-65
2021/07/25 01:51:24;;;;;;;28.58;21.85;;;;;;;;;;5050355;28;20046;-65
2021/07/25 01:54:10;;;;;;;30.08;22.20;;;;;;;;;;5051818;28;20047;-65
2021/07/25 01:56:55;;;;;;;36.95;23.15;;;;;;;;;;5013472;28;20492;-65
2021/07/25 01:59:40;;;;;;;30.40;23.77;;;;;;;;;;5049417;28;20123;-65
2021/07/25 02:02:26;;;;;;;34.90;26.35;;;;;;;;;;5039573;28;20410;-65
2021/07/25 02:05:11;;;;;;;38.13;26.70;;;;;;;;;;5039030;28;20049;-64
2021/07/25 02:07:57;;;;;;;33.40;26.75;;;;;;;;;;5050439;28;20048;-65
2021/07/25 02:10:49;;;;;;;38.03;26.33;;;;;;;;;;5052683;28;20119;-64
2021/07/25 02:13:34;;;;;;;27.05;22.98;;;;;;;;;;5051089;28;20041;-65
2021/07/25 02:16:20;;;;;;;39.88;26.90;;;;;;;;;;5033076;28;20416;-65
2021/07/25 02:19:05;;;;;;;32.47;25.85;;;;;;;;;;5032901;28;20052;-65
2021/07/25 02:21:51;;;;;;;34.03;25.20;;;;;;;;;;5037818;28;20072;-65
2021/07/25 02:24:36;;;;;;;32.63;26.00;;;;;;;;;;5052283;28;20041;-65
2021/07/25 02:27:22;;;;;;;31.95;26.15;;;;;;;;;;5052882;28;20056;-65
2021/07/25 02:30:07;;;;;;;36.15;26.00;;;;;;;;;;5044039;28;20056;-65
2021/07/25 02:32:53;;;;;;;32.88;26.25;;;;;;;;;;5031738;28;20046;-65
2021/07/25 02:35:39;;;;;;;39.97;28.10;;;;;;;;;;5031727;28;20087;-65
2021/07/25 02:38:24;;;;;;;31.58;24.52;;;;;;;;;;5049495;28;20064;-65
2021/07/25 02:41:09;;;;;;;39.00;27.20;;;;;;;;;;5052197;28;20128;-66
2021/07/25 02:43:55;;;;;;;34.58;27.13;;;;;;;;;;5050164;28;20056;-65
2021/07/25 02:46:40;;;;;;;44.30;29.80;;;;;;;;;;5052453;28;20045;-65
2021/07/25 02:49:25;;;;;;;23.02;19.23;;;;;;;;;;5052082;28;20067;-64
2021/07/25 02:52:11;;;;;;;21.58;16.95;;;;;;;;;;5050603;28;20526;-65
2021/07/25 02:54:56;;;;;;;17.38;15.38;;;;;;;;;;5052303;28;20083;-64
2021/07/25 02:57:41;;;;;;;19.58;16.92;;;;;;;;;;5052261;28;20052;-65
2021/07/25 03:00:27;;;;;;;22.77;17.98;;;;;;;;;;5046441;28;20392;-64
2021/07/25 03:03:12;;;;;;;22.63;19.05;;;;;;;;;;5046121;28;20139;-64
2021/07/25 03:05:57;;;;;;;27.85;21.90;;;;;;;;;;5039013;28;20479;-64
2021/07/25 03:08:43;;;;;;;33.00;23.92;;;;;;;;;;5042220;28;20049;-66
2021/07/25 03:11:28;;;;;;;28.63;21.58;;;;;;;;;;5030526;28;20049;-64
2021/07/25 03:14:13;;;;;;;31.95;23.65;;;;;;;;;;5031281;28;20051;-64
2021/07/25 03:16:59;;;;;;;31.63;23.05;;;;;;;;;;5046251;28;20522;-64
2021/07/25 03:19:44;;;;;;;33.60;24.90;;;;;;;;;;5051599;28;20041;-65
2021/07/25 03:22:30;;;;;;;32.80;23.60;;;;;;;;;;5051898;28;20047;-65
2021/07/25 03:25:15;;;;;;;27.98;21.77;;;;;;;;;;5039946;28;20045;-70
2021/07/25 03:28:01;;;;;;;24.70;18.92;;;;;;;;;;5030085;28;20055;-64
2021/07/25 03:30:47;;;;;;;25.13;19.63;;;;;;;;;;5039805;28;20438;-66
2021/07/25 03:33:33;;;;;;;28.92;20.80;;;;;;;;;;5051815;28;20045;-65
2021/07/25 03:36:21;;;;;;;14.90;13.27;;;;;;;;;;5050857;28;20048;-66
2021/07/25 03:39:08;;;;;;;15.70;13.15;;;;;;;;;;5031806;28;20051;-67
2021/07/25 03:41:53;;;;;;;15.35;13.63;;;;;;;;;;5031683;28;20052;-67
2021/07/25 03:44:38;;;;;;;18.13;15.13;;;;;;;;;;5041734;28;20059;-67
2021/07/25 03:47:23;;;;;;;20.52;18.15;;;;;;;;;;5051713;28;20068;-66
2021/07/25 03:50:09;;;;;;;21.23;17.20;;;;;;;;;;5049295;28;20045;-67
2021/07/25 03:52:54;;;;;;;22.63;18.05;;;;;;;;;;5010940;28;20056;-67
2021/07/25 03:55:41;;;;;;;24.23;16.98;;;;;;;;;;5030424;28;20496;-66
2021/07/25 03:58:26;;;;;;;26.17;18.50;;;;;;;;;;5040290;28;20502;-65
2021/07/25 04:01:11;;;;;;;25.90;18.65;;;;;;;;;;5051383;28;20122;-64
2021/07/25 04:03:57;;;;;;;22.58;18.15;;;;;;;;;;5051561;28;20068;-64
2021/07/25 04:06:42;;;;;;;25.50;19.50;;;;;;;;;;5047644;28;20175;-64
2021/07/25 04:09:28;;;;;;;23.65;18.77;;;;;;;;;;5047711;28;20511;-66
2021/07/25 04:12:13;;;;;;;23.58;18.85;;;;;;;;;;5046238;28;20038;-64
2021/07/25 04:14:59;;;;;;;23.02;16.85;;;;;;;;;;5051344;28;20049;-65
2021/07/25 04:17:44;;;;;;;22.58;17.90;;;;;;;;;;5048813;28;20546;-64
2021/07/25 04:20:29;;;;;;;24.50;18.52;;;;;;;;;;5051290;28;20052;-64
2021/07/25 04:23:15;;;;;;;23.60;19.30;;;;;;;;;;5048738;28;20053;-65
2021/07/25 04:26:03;;;;;;;26.05;19.23;;;;;;;;;;5051502;28;20045;-64
2021/07/25 04:28:49;;;;;;;23.95;19.73;;;;;;;;;;5048838;28;20095;-65
2021/07/25 04:31:34;;;;;;;24.15;19.67;;;;;;;;;;5054199;28;20183;-65
2021/07/25 04:34:19;;;;;;;23.60;19.50;;;;;;;;;;5050045;28;20106;-65
2021/07/25 04:37:10;;;;;;;21.98;18.92;;;;;;;;;;5054902;28;20037;-65
2021/07/25 04:39:55;;;;;;;31.20;20.27;;;;;;;;;;5054272;28;20037;-65
2021/07/25 04:42:41;;;;;;;21.85;18.85;;;;;;;;;;5051724;28;20047;-65
2021/07/25 04:45:42;;;;;;;23.13;19.55;;;;;;;;;;5054650;28;20048;-66
2021/07/25 04:48:27;;;;;;;25.50;21.13;;;;;;;;;;5050720;28;20195;-65
2021/07/25 04:51:13;;;;;;;25.67;22.25;;;;;;;;;;5054298;28;20037;-66
2021/07/25 04:54:01;;;;;;;24.90;22.17;;;;;;;;;;5054632;28;20411;-65
2021/07/25 04:56:56;;;;;;;25.55;21.92;;;;;;;;;;5050492;28;20049;-66
2021/07/25 04:59:46;;;;;;;27.70;22.70;;;;;;;;;;5054037;28;20527;-66
2021/07/25 05:02:32;;;;;;;29.75;22.95;;;;;;;;;;5041797;28;20238;-65
2021/07/25 05:05:17;;;;;;;30.25;24.88;;;;;;;;;;5030421;28;20046;-65
2021/07/25 05:08:03;;;;;;;29.85;24.40;;;;;;;;;;5030588;28;20045;-65
2021/07/25 05:10:49;;;;;;;31.00;23.67;;;;;;;;;;5034000;28;20055;-65
2021/07/25 05:13:35;;;;;;;30.52;23.17;;;;;;;;;;5033903;28;20052;-65
2021/07/25 05:16:39;;;;;;;31.48;24.67;;;;;;;;;;5032954;28;20041;-65
2021/07/25 05:19:30;;;;;;;28.30;23.10;;;;;;;;;;5032790;28;20099;-65
2021/07/25 05:22:33;;;;;;;31.88;24.77;;;;;;;;;;5032662;28;20048;-65
2021/07/25 05:25:19;;;;;;;28.92;23.63;;;;;;;;;;5032593;28;20041;-65
2021/07/25 05:28:06;;;;;;;29.15;22.40;;;;;;;;;;5033418;28;20037;-65
2021/07/25 05:30:52;;;;;;;28.05;22.73;;;;;;;;;;5031245;28;20403;-65
2021/07/25 05:33:37;;;;;;;32.70;24.38;;;;;;;;;;5033326;28;20180;-65
2021/07/25 05:36:22;;;;;;;31.58;24.05;;;;;;;;;;5033729;28;20049;-65
2021/07/25 05:39:08;;;;;;;30.13;24.60;;;;;;;;;;5033145;28;20049;-65
2021/07/25 05:41:53;;;;;;;29.13;24.95;;;;;;;;;;5030613;28;20053;-65
2021/07/25 05:44:39;;;;;;;32.40;25.05;;;;;;;;;;5031850;28;20038;-65
2021/07/25 05:47:24;;;;;;;30.00;25.13;;;;;;;;;;5032570;28;20053;-65
2021/07/25 05:50:10;;;;;;;33.45;27.13;;;;;;;;;;5043119;28;20052;-65
2021/07/25 05:52:55;;;;;;;35.65;27.80;;;;;;;;;;5053218;28;20067;-66
2021/07/25 05:55:41;;;;;;;36.08;28.52;;;;;;;;;;5033007;28;20053;-66
2021/07/25 05:58:26;;;;;;;40.85;31.55;;;;;;;;;;5031526;28;20123;-66
2021/07/25 06:01:13;;;;;;;41.42;31.67;;;;;;;;;;5031990;28;20056;-66
2021/07/25 06:03:58;;;;;;;36.58;28.90;;;;;;;;;;5031945;28;20125;-65
2021/07/25 06:06:43;;;;;;;37.08;29.02;;;;;;;;;;5032856;28;20120;-65
2021/07/25 06:09:29;;;;;;;39.10;29.45;;;;;;;;;;5030749;28;20041;-65
2021/07/25 06:12:16;;;;;;;37.83;28.90;;;;;;;;;;5032066;28;20442;-65
2021/07/25 06:15:01;;;;;;;35.33;29.77;;;;;;;;;;5032691;28;20037;-65
2021/07/25 06:17:46;;;;;;;33.70;27.52;;;;;;;;;;5029854;28;20451;-65
2021/07/25 06:20:32;;;;;;;34.75;26.90;;;;;;;;;;5031761;28;20052;-65
2021/07/25 06:23:17;;;;;;;29.10;24.40;;;;;;;;;;5032402;28;20045;-65
2021/07/25 06:26:02;;;;;;;29.27;24.63;;;;;;;;;;5030799;28;20500;-65
2021/07/25 06:28:49;;;;;;;31.15;25.05;;;;;;;;;;5030099;28;20048;-65
2021/07/25 06:31:34;;;;;;;29.50;25.33;;;;;;;;;;5031902;28;20045;-65
2021/07/25 06:34:20;;;;;;;29.10;25.90;;;;;;;;;;5030348;28;20052;-65
2021/07/25 06:37:08;;;;;;;29.00;25.48;;;;;;;;;;5031621;28;20060;-65
2021/07/25 06:39:53;;;;;;;24.25;21.70;;;;;;;;;;5031356;28;20049;-67
2021/07/25 06:42:38;;;;;;;25.83;23.00;;;;;;;;;;5050567;28;20503;-65
2021/07/25 06:45:24;;;;;;;24.98;22.23;;;;;;;;;;5052295;28;20499;-66
2021/07/25 06:48:28;;;;;;;24.45;21.90;;;;;;;;;;5052508;28;20053;-65
2021/07/25 06:51:13;;;;;;;25.90;22.58;;;;;;;;;;5048118;28;20510;-66
2021/07/25 06:53:59;;;;;;;25.05;22.35;;;;;;;;;;5039175;28;20045;-65
2021/07/25 06:56:45;;;;;;;24.98;22.27;;;;;;;;;;5029177;28;20179;-67
2021/07/25 06:59:30;;;;;;;27.02;24.20;;;;;;;;;;5031023;28;20115;-67
2021/07/25 07:02:15;;;;;;;29.67;24.77;;;;;;;;;;5031413;28;20045;-67
2021/07/25 07:05:01;;;;;;;30.17;26.95;;;;;;;;;;5031423;28;20096;-67
2021/07/25 07:07:47;;;;;;;34.42;29.35;;;;;;;;;;5030335;28;20045;-67
2021/07/25 07:10:33;;;;;;;30.10;26.77;;;;;;;;;;5029078;28;20041;-67
2021/07/25 07:13:18;;;;;;;31.70;27.83;;;;;;;;;;5031763;28;20033;-67
2021/07/25 07:16:04;;;;;;;32.38;28.83;;;;;;;;;;5031799;28;20127;-68
2021/07/25 07:18:49;;;;;;;39.70;30.77;;;;;;;;;;5030828;28;20059;-67
2021/07/25 07:21:35;;;;;;;36.13;30.92;;;;;;;;;;5030619;28;20038;-67
2021/07/25 07:24:20;;;;;;;39.72;33.42;;;;;;;;;;5031090;28;20092;-67
2021/07/25 07:27:06;;;;;;;36.53;32.55;;;;;;;;;;5029882;28;20045;-67
2021/07/25 07:29:54;;;;;;;39.60;33.92;;;;;;;;;;5031206;28;20045;-67
2021/07/25 07:32:39;;;;;;;42.58;36.78;;;;;;;;;;5030118;28;20518;-68
2021/07/25 07:35:25;;;;;;;42.50;37.38;;;;;;;;;;5030659;28;20494;-67
2021/07/25 07:38:11;;;;;;;41.58;35.60;;;;;;;;;;5029392;28;20042;-66
2021/07/25 07:40:57;;;;;;;42.13;35.90;;;;;;;;;;5029469;28;20049;-66
2021/07/25 07:43:42;;;;;;;39.40;35.05;;;;;;;;;;5032153;28;20041;-67
2021/07/25 07:46:27;;;;;;;45.65;37.70;;;;;;;;;;5029152;28;20041;-67
2021/07/25 07:49:13;;;;;;;35.38;31.52;;;;;;;;;;5029796;28;20115;-67
2021/07/25 07:51:58;;;;;;;41.88;35.63;;;;;;;;;;5030244;28;20539;-67
2021/07/25 07:54:44;;;;;;;34.22;30.25;;;;;;;;;;5031104;28;20037;-66
2021/07/25 07:57:29;;;;;;;37.10;32.88;;;;;;;;;;5027625;28;20048;-66
2021/07/25 08:00:15;;;;;;;39.65;34.33;;;;;;;;;;5029623;28;20042;-67
2021/07/25 08:03:06;;;;;;;34.35;29.95;;;;;;;;;;5030150;28;20403;-69
2021/07/25 08:05:51;;;;;;;34.28;30.02;;;;;;;;;;5031495;28;20515;-68
2021/07/25 08:08:36;;;;;;;34.28;29.48;;;;;;;;;;5033745;28;20046;-67
2021/07/25 08:11:22;;;;;;;37.03;33.03;;;;;;;;;;5034093;28;20050;-67
2021/07/25 08:14:07;;;;;;;37.63;33.50;;;;;;;;;;5034863;28;20397;-68
2021/07/25 08:16:53;;;;;;;40.60;34.78;;;;;;;;;;5034145;28;20176;-67
2021/07/25 08:19:41;;;;;;;36.95;32.97;;;;;;;;;;5034004;28;20037;-67
2021/07/25 08:22:26;;;;;;;36.30;32.42;;;;;;;;;;5034109;28;20048;-67
2021/07/25 08:25:12;;;;;;;36.05;32.17;;;;;;;;;;5034660;28;20053;-67
2021/07/25 08:27:57;;;;;;;30.60;27.50;;;;;;;;;;5029244;28;20057;-69
2021/07/25 08:30:42;;;;;;;36.47;32.60;;;;;;;;;;5030828;28;20053;-67
2021/07/25 08:33:28;;;;;;;38.97;34.75;;;;;;;;;;5030546;28;20434;-67
2021/07/25 08:36:13;;;;;;;35.55;30.65;;;;;;;;;;5030579;28;20069;-66
2021/07/25 08:38:59;;;;;;;31.27;28.08;;;;;;;;;;5061454;22;20067;-64
2021/07/25 08:41:47;;;;;;;32.38;29.10;;;;;;;;;;5051894;28;20049;-65
2021/07/25 08:44:43;;;;;;;36.92;33.00;;;;;;;;;;5050929;28;20061;-64
2021/07/25 08:47:36;;;;;;;39.92;35.15;;;;;;;;;;5048923;28;20666;-64
2021/07/25 08:50:26;;;;;;;37.03;33.05;;;;;;;;;;5046212;28;20079;-64
2021/07/25 08:53:16;;;;;;;41.70;37.30;;;;;;;;;;5050607;28;20490;-64
2021/07/25 08:56:00;;;;;;;42.22;37.83;;;;;;;;;;5014188;28;20056;-64
2021/07/25 08:58:46;;;;;;;38.65;34.75;;;;;;;;;;5012640;28;20068;-65
2021/07/25 09:01:34;;;;;;;41.17;34.15;;;;;;;;;;5016622;28;20535;-64
2021/07/25 09:04:19;;;;;;;35.67;32.03;;;;;;;;;;5012317;28;20058;-65
2021/07/25 09:07:05;;;;;;;39.33;35.25;;;;;;;;;;5020967;28;20506;-65
2021/07/25 09:09:51;;;;;;;38.20;34.20;;;;;;;;;;5021254;28;20131;-65
2021/07/25 09:12:36;;;;;;;37.03;33.17;;;;;;;;;;5021713;28;20095;-65
2021/07/25 09:15:24;;;;;;;40.38;36.15;;;;;;;;;;5022534;28;20515;-65
2021/07/25 09:18:09;;;;;;;41.92;37.53;;;;;;;;;;5022653;28;20087;-65
2021/07/25 09:20:55;;;;;;;42.75;38.38;;;;;;;;;;5022787;28;20061;-65
2021/07/25 09:23:40;;;;;;;46.17;40.88;;;;;;;;;;5022311;28;20065;-65
2021/07/25 09:26:25;;;;;;;43.38;38.85;;;;;;;;;;5022022;28;20592;-65
2021/07/25 09:29:19;;;;;;;43.75;39.10;;;;;;;;;;5022049;28;20106;-65
2021/07/25 09:32:11;;;;;;;43.33;38.75;;;;;;;;;;5021536;28;20676;-65
2021/07/25 09:34:56;;;;;;;40.20;36.13;;;;;;;;;;5016396;28;20519;-65
2021/07/25 09:37:41;;;;;;;39.85;35.85;;;;;;;;;;5021304;28;20049;-65
2021/07/25 09:40:28;;;;;;;38.80;34.70;;;;;;;;;;5031854;28;20183;-65
2021/07/25 09:43:16;;;;;;;40.55;36.55;;;;;;;;;;5031303;28;20046;-65
2021/07/25 09:46:01;;;;;;;40.67;36.05;;;;;;;;;;5032131;28;20487;-64
2021/07/25 09:48:49;;;;;;;37.65;33.83;;;;;;;;;;5031079;28;20045;-65
2021/07/25 09:51:35;;;;;;;39.15;35.08;;;;;;;;;;5050969;28;20479;-65
2021/07/25 09:54:25;;;;;;;40.08;36.28;;;;;;;;;;5013788;28;20052;-65
2021/07/25 09:57:13;;;;;;;34.75;31.25;;;;;;;;;;5012871;28;20050;-64
2021/07/25 09:59:58;;;;;;;36.20;32.58;;;;;;;;;;5012857;28;20488;-64
2021/07/25 10:02:45;;;;;;;32.28;29.05;;;;;;;;;;5015669;28;20045;-64
2021/07/25 10:05:32;;;;;;;34.72;31.15;;;;;;;;;;5031207;28;20095;-64
2021/07/25 10:08:17;;;;;;;36.45;32.65;;;;;;;;;;5032277;28;20136;-64
2021/07/25 10:11:02;;;;;;;34.47;31.00;;;;;;;;;;5031756;28;20063;-64
2021/07/25 10:13:48;;;;;;;38.08;33.60;;;;;;;;;;5030142;28;20046;-64
2021/07/25 10:16:33;;;;;;;37.17;33.40;;;;;;;;;;5031300;28;20049;-64
2021/07/25 10:19:21;;;;;;;35.05;31.35;;;;;;;;;;5035962;28;20471;-64
2021/07/25 10:22:10;;;;;;;32.92;28.40;;;;;;;;;;5050650;28;20059;-64
2021/07/25 10:24:56;;;;;;;30.77;27.75;;;;;;;;;;5032994;28;20073;-64
2021/07/25 10:27:42;;;;;;;30.70;27.60;;;;;;;;;;5028482;28;20176;-64
2021/07/25 10:30:27;;;;;;;30.48;27.30;;;;;;;;;;5031025;28;20554;-64
2021/07/25 10:33:13;;;;;;;31.02;27.77;;;;;;;;;;5030657;28;20045;-64
2021/07/25 10:35:59;;;;;;;27.00;24.20;;;;;;;;;;5006697;28;20615;-64
2021/07/25 10:38:45;;;;;;;27.17;24.48;;;;;;;;;;5009539;28;20100;-64
2021/07/25 10:41:31;;;;;;;25.73;23.20;;;;;;;;;;5010556;28;20073;-64
2021/07/25 10:44:17;;;;;;;27.45;24.77;;;;;;;;;;4670427;28;9999994;-65
2021/07/25 10:47:35;;;;;;;25.13;22.83;;;;;;;;;;5026771;28;20054;-65
2021/07/25 10:50:23;;;;;;;26.60;24.08;;;;;;;;;;4999070;28;20151;-64
2021/07/25 10:53:08;;;;;;;26.17;23.58;;;;;;;;;;5020343;28;20050;-65
2021/07/25 10:55:54;;;;;;;26.85;24.17;;;;;;;;;;5027143;28;20057;-65
2021/07/25 10:58:54;;;;;;;27.23;24.73;;;;;;;;;;5028035;28;20059;-65
2021/07/25 11:01:46;;;;;;;27.13;24.42;;;;;;;;;;5024882;28;20081;-65
2021/07/25 11:04:54;;;;;;;27.42;24.83;;;;;;;;;;5026971;28;20530;-64
2021/07/25 11:07:41;;;;;;;24.67;22.35;;;;;;;;;;5026091;28;20111;-65
2021/07/25 11:10:32;;;;;;;26.80;24.33;;;;;;;;;;5028327;28;20049;-66
2021/07/25 11:13:17;;;;;;;26.00;23.27;;;;;;;;;;5028747;28;20052;-65
2021/07/25 11:16:03;;;;;;;27.00;24.42;;;;;;;;;;5029083;28;20037;-65
2021/07/25 11:18:48;;;;;;;27.90;25.17;;;;;;;;;;5028533;28;20053;-65
2021/07/25 11:21:40;;;;;;;27.50;24.92;;;;;;;;;;5047345;28;20049;-65
2021/07/25 11:24:27;;;;;;;27.15;24.42;;;;;;;;;;5049300;28;20056;-65
2021/07/25 11:27:13;;;;;;;28.55;25.85;;;;;;;;;;5035865;28;20053;-65
2021/07/25 11:29:58;;;;;;;28.20;25.40;;;;;;;;;;5028643;28;20048;-65
2021/07/25 11:32:43;;;;;;;28.35;25.70;;;;;;;;;;5024875;28;20095;-65
2021/07/25 11:35:28;;;;;;;29.40;26.40;;;;;;;;;;5024306;28;20053;-65
2021/07/25 11:38:13;;;;;;;30.35;27.35;;;;;;;;;;5028603;28;20149;-65
2021/07/25 11:40:59;;;;;;;27.65;24.95;;;;;;;;;;5032868;28;20053;-65
2021/07/25 11:43:51;;;;;;;28.70;25.80;;;;;;;;;;5031522;28;20933;-66
2021/07/25 11:46:40;;;;;;;27.08;24.35;;;;;;;;;;5030602;28;20462;-65
2021/07/25 11:49:29;;;;;;;28.38;25.27;;;;;;;;;;5037509;28;20044;-65
2021/07/25 11:52:14;;;;;;;29.35;26.23;;;;;;;;;;5022669;28;20040;-65
2021/07/25 11:54:59;;;;;;;26.67;24.13;;;;;;;;;;5023587;28;20046;-65
2021/07/25 11:57:45;;;;;;;26.40;23.90;;;;;;;;;;5022511;28;20907;-65
2021/07/25 12:00:30;;;;;;;26.33;23.73;;;;;;;;;;5021799;28;20045;-65
2021/07/25 12:03:15;;;;;;;26.33;23.65;;;;;;;;;;5021030;28;20041;-65
2021/07/25 12:06:11;;;;;;;25.73;23.27;;;;;;;;;;5012807;28;20185;-65
2021/07/25 12:09:05;;;;;;;27.02;24.42;;;;;;;;;;5027085;28;20042;-65
2021/07/25 12:11:50;;;;;;;25.02;22.63;;;;;;;;;;5032161;28;20061;-65
2021/07/25 12:14:37;;;;;;;23.42;21.13;;;;;;;;;;5031232;28;20057;-65
2021/07/25 12:17:45;;;;;;;24.17;20.85;;;;;;;;;;5032605;28;20084;-65
2021/07/25 12:20:33;;;;;;;24.65;22.35;;;;;;;;;;5046297;28;20045;-65
2021/07/25 12:23:18;;;;;;;23.50;21.23;;;;;;;;;;5052525;28;20204;-65
2021/07/25 12:26:04;;;;;;;23.63;21.23;;;;;;;;;;5051551;28;20041;-65
2021/07/25 12:28:49;;;;;;;23.20;21.05;;;;;;;;;;5042681;28;20045;-65
2021/07/25 12:31:34;;;;;;;23.35;21.02;;;;;;;;;;5031094;28;20048;-65
2021/07/25 12:34:23;;;;;;;21.65;19.67;;;;;;;;;;5028484;28;20056;-65
2021/07/25 12:37:24;;;;;;;21.27;19.23;;;;;;;;;;5032491;28;20042;-65
2021/07/25 12:40:10;;;;;;;23.17;20.77;;;;;;;;;;5031715;28;20056;-65
2021/07/25 12:42:58;;;;;;;20.52;18.48;;;;;;;;;;5031698;28;20046;-65
2021/07/25 12:45:44;;;;;;;20.50;18.33;;;;;;;;;;5020567;28;20042;-66
2021/07/25 12:48:33;;;;;;;18.58;16.67;;;;;;;;;;5021386;28;20038;-68
2021/07/25 12:51:21;;;;;;;17.85;15.77;;;;;;;;;;5020387;28;20049;-65
2021/07/25 12:54:06;;;;;;;17.15;15.52;;;;;;;;;;5019833;28;20395;-65
2021/07/25 12:56:53;;;;;;;17.08;15.43;;;;;;;;;;5017128;28;20571;-66
2021/07/25 12:59:38;;;;;;;16.25;14.55;;;;;;;;;;5016640;28;20044;-65
2021/07/25 13:05:28;;;;;;;15.15;13.65;;;;;;;;;;5030933;28;20053;-65
2021/07/25 13:08:13;;;;;;;13.73;12.43;;;;;;;;;;5031404;28;20435;-65
2021/07/25 13:10:58;;;;;;;14.63;13.32;;;;;;;;;;5030140;28;20680;-65
2021/07/25 13:13:44;;;;;;;14.40;12.98;;;;;;;;;;5031696;28;20063;-65
2021/07/25 13:16:29;;;;;;;13.77;12.35;;;;;;;;;;5031544;28;20127;-65
2021/07/25 13:19:15;;;;;;;14.75;13.35;;;;;;;;;;5035945;28;20084;-65
2021/07/25 13:22:00;;;;;;;15.18;13.77;;;;;;;;;;5031321;28;20052;-65
2021/07/25 13:24:47;;;;;;;15.20;13.77;;;;;;;;;;5031664;28;20048;-65
2021/07/25 13:27:32;;;;;;;14.82;13.35;;;;;;;;;;5031092;28;20171;-65
2021/07/25 13:30:17;;;;;;;14.15;12.73;;;;;;;;;;5030729;28;20055;-65
2021/07/25 13:33:02;;;;;;;14.68;13.27;;;;;;;;;;5031668;28;20490;-65
2021/07/25 13:35:50;;;;;;;16.50;14.82;;;;;;;;;;5026435;28;20049;-65
2021/07/25 13:38:36;;;;;;;18.73;14.40;;;;;;;;;;5031032;28;20546;-65
2021/07/25 13:41:22;;;;;;;16.98;15.38;;;;;;;;;;5029863;28;20041;-65
2021/07/25 13:44:07;;;;;;;15.07;13.52;;;;;;;;;;5032931;28;20070;-65
2021/07/25 13:49:38;;;;;;;17.58;14.20;;;;;;;;;;5038141;28;20049;-65
2021/07/25 13:52:24;;;;;;;15.60;13.27;;;;;;;;;;5035037;28;20055;-65
2021/07/25 13:55:10;;;;;;;16.27;13.90;;;;;;;;;;5031148;28;20515;-65
2021/07/25 13:57:55;;;;;;;14.13;12.68;;;;;;;;;;5033291;28;20059;-66
2021/07/25 14:00:40;;;;;;;14.65;12.60;;;;;;;;;;5030265;28;20044;-65
2021/07/25 14:03:25;;;;;;;13.65;12.35;;;;;;;;;;5030397;28;20071;-65
2021/07/25 14:06:10;;;;;;;16.00;12.90;;;;;;;;;;5031460;28;20042;-65
2021/07/25 14:08:56;;;;;;;13.07;11.75;;;;;;;;;;5031035;28;20053;-65
2021/07/25 14:11:43;;;;;;;18.90;12.40;;;;;;;;;;5030165;28;20178;-66
2021/07/25 14:14:31;;;;;;;9.73;8.73;;;;;;;;;;5031794;28;20153;-64
2021/07/25 14:17:17;;;;;;;10.35;8.85;;;;;;;;;;5031523;28;20123;-65
2021/07/25 14:20:02;;;;;;;8.85;8.05;;;;;;;;;;5041616;28;20102;-66
2021/07/25 14:22:47;;;;;;;7.97;7.18;;;;;;;;;;5040803;28;20521;-65
2021/07/25 14:25:32;;;;;;;6.90;6.20;;;;;;;;;;5031034;28;20056;-66
2021/07/25 14:28:17;;;;;;;6.78;5.90;;;;;;;;;;5031071;28;20049;-65
2021/07/25 14:31:03;;;;;;;3.42;3.13;;;;;;;;;;5029118;28;20124;-66
2021/07/25 14:33:48;;;;;;;3.80;3.50;;;;;;;;;;5030206;28;20064;-66
2021/07/25 14:36:33;;;;;;;4.65;4.25;;;;;;;;;;5025459;28;20561;-66
2021/07/25 14:39:18;;;;;;;5.03;4.53;;;;;;;;;;5047188;22;20351;-67
2021/07/25 14:42:04;;;;;;;4.72;4.00;;;;;;;;;;5030317;28;20051;-67
2021/07/25 14:44:49;;;;;;;5.80;5.10;;;;;;;;;;5028369;28;20060;-67
2021/07/25 14:47:34;;;;;;;5.18;4.68;;;;;;;;;;5018010;28;20037;-68
2021/07/25 14:50:20;;;;;;;5.20;4.75;;;;;;;;;;5027125;28;20057;-67
2021/07/25 14:53:05;;;;;;;9.38;8.48;;;;;;;;;;5011131;28;20048;-65
2021/07/25 14:55:50;;;;;;;8.57;7.78;;;;;;;;;;5027571;28;20053;-65
2021/07/25 14:58:37;;;;;;;6.97;6.38;;;;;;;;;;5029197;28;20051;-67
2021/07/25 15:01:22;;;;;;;7.15;6.45;;;;;;;;;;5019802;28;20060;-65
2021/07/25 15:04:08;;;;;;;5.80;5.30;;;;;;;;;;5011149;28;20488;-65
2021/07/25 15:06:53;;;;;;;5.60;5.10;;;;;;;;;;5018036;28;20038;-66
2021/07/25 15:09:38;;;;;;;5.22;4.72;;;;;;;;;;5019344;28;20129;-65
2021/07/25 15:12:24;;;;;;;5.13;4.72;;;;;;;;;;5010972;28;20053;-65
2021/07/25 15:15:09;;;;;;;6.95;6.30;;;;;;;;;;5028110;28;20206;-65
2021/07/25 15:17:55;;;;;;;7.38;6.43;;;;;;;;;;5030706;28;20175;-65
2021/07/25 15:20:44;;;;;;;6.13;5.57;;;;;;;;;;5023248;28;20049;-66
2021/07/25 15:23:29;;;;;;;8.43;7.63;;;;;;;;;;5029320;28;20537;-67
2021/07/25 15:26:15;;;;;;;8.27;7.10;;;;;;;;;;5030234;28;20049;-67
2021/07/25 15:29:00;;;;;;;7.57;6.88;;;;;;;;;;5029244;28;20052;-66
2021/07/25 15:31:45;;;;;;;8.07;7.40;;;;;;;;;;5029350;28;20530;-66
2021/07/25 15:34:31;;;;;;;8.90;8.10;;;;;;;;;;5027434;28;20403;-66
2021/07/25 15:37:16;;;;;;;7.78;7.05;;;;;;;;;;5030340;28;20506;-66
2021/07/25 15:40:01;;;;;;;8.68;7.88;;;;;;;;;;5030023;28;20335;-67
2021/07/25 15:42:46;;;;;;;9.40;8.38;;;;;;;;;;5028719;28;20157;-69
2021/07/25 15:45:32;;;;;;;9.10;8.20;;;;;;;;;;5012988;28;20053;-66
2021/07/25 15:48:17;;;;;;;8.38;7.65;;;;;;;;;;5027741;28;20191;-65
2021/07/25 15:51:03;;;;;;;8.45;7.60;;;;;;;;;;5019762;28;20045;-66
2021/07/25 15:53:48;;;;;;;8.07;7.13;;;;;;;;;;5027823;28;20048;-65
2021/07/25 15:56:34;;;;;;;8.73;7.03;;;;;;;;;;5028938;28;20060;-66
2021/07/25 15:59:19;;;;;;;7.43;6.72;;;;;;;;;;5027888;28;20183;-65
2021/07/25 16:02:05;;;;;;;6.75;5.72;;;;;;;;;;5027874;28;20064;-65
2021/07/25 16:04:50;;;;;;;5.93;5.32;;;;;;;;;;5026496;28;20044;-65
2021/07/25 16:07:35;;;;;;;7.82;5.40;;;;;;;;;;5027292;28;20054;-65
2021/07/25 16:10:20;;;;;;;7.47;6.85;;;;;;;;;;5028673;28;20057;-66
2021/07/25 16:13:06;;;;;;;7.10;6.40;;;;;;;;;;5028800;28;20048;-65
2021/07/25 16:15:51;;;;;;;6.78;6.07;;;;;;;;;;5028670;28;20050;-65
2021/07/25 16:18:36;;;;;;;6.15;5.57;;;;;;;;;;5028260;28;20049;-65
2021/07/25 16:21:25;;;;;;;7.63;6.60;;;;;;;;;;5009596;28;20524;-65